sensor_id;sensor_type;location;lat;lon;timestamp;pressure;altitude;pressure_sealevel;temperature;humidity
17635;BME280;8936;49.010;12.120;2023-04-01T00:02:05;96547.66;;;10.38;100.00
17635;BME280;8936;49.010;12.120;2023-04-01T00:04:31;96540.66;;;10.42;100.00
17635;BME280;8936;49.010;12.120;2023-04-01T00:06:58;96547.19;;;10.36;100.00
17635;BME280;8936;49.010;12.120;2023-04-01T00:09:25;96539.56;;;10.43;100.00
17635;BME280;8936;49.010;12.120;2023-04-01T00:11:51;96542.81;;;10.40;100.00
17635;BME280;8936;49.010;12.120;2023-04-01T00:14:18;96537.19;;;10.42;100.00
17635;BME280;8936;49.010;12.120;2023-04-01T00:16:44;96530.84;;;10.38;100.00
17635;BME280;8936;49.010;12.120;2023-04-01T00:19:12;96543.53;;;10.46;100.00
17635;BME280;8936;49.010;12.120;2023-04-01T00:21:38;96535.91;;;10.39;100.00
17635;BME280;8936;49.010;12.120;2023-04-01T00:24:05;96531.53;;;10.43;100.00
17635;BME280;8936;49.010;12.120;2023-04-01T00:26:31;96533.84;;;10.36;100.00
17635;BME280;8936;49.010;12.120;2023-04-01T00:28:58;96534.72;;;10.45;100.00
17635;BME280;8936;49.010;12.120;2023-04-01T00:31:24;96535.31;;;10.42;100.00
17635;BME280;8936;49.010;12.120;2023-04-01T00:33:51;96536.88;;;10.29;100.00
17635;BME280;8936;49.010;12.120;2023-04-01T00:36:19;96542.63;;;10.37;100.00
17635;BME280;8936;49.010;12.120;2023-04-01T00:38:46;96540.25;;;10.35;100.00
17635;BME280;8936;49.010;12.120;2023-04-01T00:41:13;96536.50;;;10.36;100.00
17635;BME280;8936;49.010;12.120;2023-04-01T00:43:40;96531.16;;;10.36;100.00
17635;BME280;8936;49.010;12.120;2023-04-01T00:46:07;96529.94;;;10.28;100.00
17635;BME280;8936;49.010;12.120;2023-04-01T00:48:34;96532.72;;;10.23;100.00
17635;BME280;8936;49.010;12.120;2023-04-01T00:51:02;96523.84;;;10.42;100.00
17635;BME280;8936;49.010;12.120;2023-04-01T00:53:31;96525.25;;;10.39;100.00
17635;BME280;8936;49.010;12.120;2023-04-01T00:56:00;96527.59;;;10.41;100.00
17635;BME280;8936;49.010;12.120;2023-04-01T00:58:27;96531.34;;;10.26;100.00
17635;BME280;8936;49.010;12.120;2023-04-01T01:00:55;96532.63;;;10.28;100.00
17635;BME280;8936;49.010;12.120;2023-04-01T01:03:23;96518.88;;;10.21;100.00
17635;BME280;8936;49.010;12.120;2023-04-01T01:05:57;96534.28;;;10.24;100.00
17635;BME280;8936;49.010;12.120;2023-04-01T01:08:30;96522.53;;;10.25;100.00
17635;BME280;8936;49.010;12.120;2023-04-01T01:11:04;96521.03;;;10.19;100.00
17635;BME280;8936;49.010;12.120;2023-04-01T01:13:32;96523.03;;;10.27;100.00
17635;BME280;8936;49.010;12.120;2023-04-01T01:16:03;96518.47;;;10.28;100.00
17635;BME280;8936;49.010;12.120;2023-04-01T01:18:33;96522.53;;;10.25;100.00
17635;BME280;8936;49.010;12.120;2023-04-01T01:21:13;96523.22;;;10.17;100.00
17635;BME280;8936;49.010;12.120;2023-04-01T01:23:57;96523.16;;;10.04;100.00
17635;BME280;8936;49.010;12.120;2023-04-01T01:26:47;96525.94;;;10.12;100.00
17635;BME280;8936;49.010;12.120;2023-04-01T01:29:24;96519.63;;;10.08;100.00
17635;BME280;8936;49.010;12.120;2023-04-01T01:31:54;96524.03;;;10.18;100.00
17635;BME280;8936;49.010;12.120;2023-04-01T01:34:27;96525.09;;;10.17;100.00
17635;BME280;8936;49.010;12.120;2023-04-01T01:36:56;96513.69;;;10.11;100.00
17635;BME280;8936;49.010;12.120;2023-04-01T01:39:25;96507.94;;;10.04;100.00
17635;BME280;8936;49.010;12.120;2023-04-01T01:41:53;96513.88;;;10.01;100.00
17635;BME280;8936;49.010;12.120;2023-04-01T01:44:19;96515.25;;;10.12;100.00
17635;BME280;8936;49.010;12.120;2023-04-01T01:46:47;96507.63;;;10.06;100.00
17635;BME280;8936;49.010;12.120;2023-04-01T01:49:14;96519.03;;;10.11;100.00
17635;BME280;8936;49.010;12.120;2023-04-01T01:51:41;96517.38;;;10.15;100.00
17635;BME280;8936;49.010;12.120;2023-04-01T01:54:12;96519.47;;;10.18;100.00
17635;BME280;8936;49.010;12.120;2023-04-01T01:56:39;96518.09;;;10.21;100.00
17635;BME280;8936;49.010;12.120;2023-04-01T01:59:08;96512.19;;;10.24;100.00
17635;BME280;8936;49.010;12.120;2023-04-01T02:01:37;96518.00;;;10.26;100.00
17635;BME280;8936;49.010;12.120;2023-04-01T02:04:03;96519.66;;;10.22;100.00
17635;BME280;8936;49.010;12.120;2023-04-01T02:06:30;96514.84;;;10.24;100.00
17635;BME280;8936;49.010;12.120;2023-04-01T02:09:00;96516.03;;;10.18;100.00
17635;BME280;8936;49.010;12.120;2023-04-01T02:11:29;96512.47;;;10.04;100.00
17635;BME280;8936;49.010;12.120;2023-04-01T02:13:58;96514.91;;;10.19;100.00
17635;BME280;8936;49.010;12.120;2023-04-01T02:16:28;96510.97;;;10.16;100.00
17635;BME280;8936;49.010;12.120;2023-04-01T02:18:55;96515.03;;;9.95;100.00
17635;BME280;8936;49.010;12.120;2023-04-01T02:21:23;96515.56;;;10.11;100.00
17635;BME280;8936;49.010;12.120;2023-04-01T02:23:50;96514.13;;;10.18;100.00
17635;BME280;8936;49.010;12.120;2023-04-01T02:26:18;96512.75;;;10.21;100.00
17635;BME280;8936;49.010;12.120;2023-04-01T02:28:46;96507.13;;;9.90;100.00
17635;BME280;8936;49.010;12.120;2023-04-01T02:31:14;96515.56;;;10.11;100.00
17635;BME280;8936;49.010;12.120;2023-04-01T02:33:40;96519.78;;;9.98;100.00
17635;BME280;8936;49.010;12.120;2023-04-01T02:36:10;96520.13;;;10.10;100.00
17635;BME280;8936;49.010;12.120;2023-04-01T02:38:37;96513.06;;;10.01;100.00
17635;BME280;8936;49.010;12.120;2023-04-01T02:41:03;96521.16;;;9.96;100.00
17635;BME280;8936;49.010;12.120;2023-04-01T02:43:30;96522.09;;;10.05;100.00
17635;BME280;8936;49.010;12.120;2023-04-01T02:45:58;96529.50;;;10.08;100.00
17635;BME280;8936;49.010;12.120;2023-04-01T02:48:26;96529.06;;;10.01;100.00
17635;BME280;8936;49.010;12.120;2023-04-01T02:50:52;96537.56;;;10.03;100.00
17635;BME280;8936;49.010;12.120;2023-04-01T02:53:19;96532.22;;;10.03;100.00
17635;BME280;8936;49.010;12.120;2023-04-01T02:55:45;96538.16;;;10.00;100.00
17635;BME280;8936;49.010;12.120;2023-04-01T02:58:11;96546.56;;;9.93;100.00
17635;BME280;8936;49.010;12.120;2023-04-01T03:00:38;96558.50;;;9.96;100.00
17635;BME280;8936;49.010;12.120;2023-04-01T03:03:05;96553.75;;;9.93;100.00
17635;BME280;8936;49.010;12.120;2023-04-01T03:05:32;96552.16;;;9.92;100.00
17635;BME280;8936;49.010;12.120;2023-04-01T03:07:58;96559.66;;;9.90;100.00
17635;BME280;8936;49.010;12.120;2023-04-01T03:10:25;96559.22;;;10.01;100.00
17635;BME280;8936;49.010;12.120;2023-04-01T03:12:51;96553.56;;;10.03;100.00
17635;BME280;8936;49.010;12.120;2023-04-01T03:15:17;96555.97;;;10.04;100.00
17635;BME280;8936;49.010;12.120;2023-04-01T03:17:44;96545.88;;;10.01;100.00
17635;BME280;8936;49.010;12.120;2023-04-01T03:20:13;96545.50;;;10.08;100.00
17635;BME280;8936;49.010;12.120;2023-04-01T03:22:40;96561.28;;;10.04;100.00
17635;BME280;8936;49.010;12.120;2023-04-01T03:25:06;96542.31;;;10.06;100.00
17635;BME280;8936;49.010;12.120;2023-04-01T03:27:33;96554.66;;;10.02;100.00
17635;BME280;8936;49.010;12.120;2023-04-01T03:30:00;96558.66;;;9.86;100.00
17635;BME280;8936;49.010;12.120;2023-04-01T03:32:26;96558.88;;;9.89;100.00
17635;BME280;8936;49.010;12.120;2023-04-01T03:34:53;96566.16;;;9.84;100.00
17635;BME280;8936;49.010;12.120;2023-04-01T03:37:22;96570.97;;;9.82;100.00
17635;BME280;8936;49.010;12.120;2023-04-01T03:39:48;96569.06;;;10.01;100.00
17635;BME280;8936;49.010;12.120;2023-04-01T03:42:15;96563.63;;;9.92;100.00
17635;BME280;8936;49.010;12.120;2023-04-01T03:44:41;96560.06;;;9.97;100.00
17635;BME280;8936;49.010;12.120;2023-04-01T03:47:07;96564.13;;;9.75;100.00
17635;BME280;8936;49.010;12.120;2023-04-01T03:49:35;96574.66;;;9.86;100.00
17635;BME280;8936;49.010;12.120;2023-04-01T03:52:01;96578.25;;;9.95;100.00
17635;BME280;8936;49.010;12.120;2023-04-01T03:54:29;96576.94;;;9.92;100.00
17635;BME280;8936;49.010;12.120;2023-04-01T03:56:55;96581.41;;;9.97;100.00
17635;BME280;8936;49.010;12.120;2023-04-01T03:59:23;96564.72;;;9.72;100.00
17635;BME280;8936;49.010;12.120;2023-04-01T04:01:49;96575.91;;;9.74;100.00
17635;BME280;8936;49.010;12.120;2023-04-01T04:04:15;96572.81;;;9.67;100.00
17635;BME280;8936;49.010;12.120;2023-04-01T04:06:42;96571.22;;;9.66;100.00
17635;BME280;8936;49.010;12.120;2023-04-01T04:09:09;96572.94;;;9.76;100.00
17635;BME280;8936;49.010;12.120;2023-04-01T04:11:36;96573.72;;;9.76;100.00
17635;BME280;8936;49.010;12.120;2023-04-01T04:14:03;96581.50;;;9.73;100.00
17635;BME280;8936;49.010;12.120;2023-04-01T04:16:29;96575.81;;;9.61;100.00
17635;BME280;8936;49.010;12.120;2023-04-01T04:18:56;96571.88;;;9.77;100.00
17635;BME280;8936;49.010;12.120;2023-04-01T04:21:22;96567.50;;;9.81;100.00
17635;BME280;8936;49.010;12.120;2023-04-01T04:23:48;96583.09;;;9.74;100.00
17635;BME280;8936;49.010;12.120;2023-04-01T04:26:15;96582.00;;;9.75;100.00
17635;BME280;8936;49.010;12.120;2023-04-01T04:28:43;96595.75;;;9.82;100.00
17635;BME280;8936;49.010;12.120;2023-04-01T04:31:10;96582.81;;;9.75;100.00
17635;BME280;8936;49.010;12.120;2023-04-01T04:33:36;96584.75;;;9.51;100.00
17635;BME280;8936;49.010;12.120;2023-04-01T04:36:03;96588.66;;;9.59;100.00
17635;BME280;8936;49.010;12.120;2023-04-01T04:38:30;96596.66;;;9.59;100.00
17635;BME280;8936;49.010;12.120;2023-04-01T04:40:56;96583.91;;;9.74;100.00
17635;BME280;8936;49.010;12.120;2023-04-01T04:43:22;96593.19;;;9.77;100.00
17635;BME280;8936;49.010;12.120;2023-04-01T04:45:50;96587.06;;;9.76;100.00
17635;BME280;8936;49.010;12.120;2023-04-01T04:48:16;96585.56;;;9.70;100.00
17635;BME280;8936;49.010;12.120;2023-04-01T04:50:45;96598.78;;;9.75;100.00
17635;BME280;8936;49.010;12.120;2023-04-01T04:53:12;96590.88;;;9.70;100.00
17635;BME280;8936;49.010;12.120;2023-04-01T04:55:42;96584.91;;;9.60;100.00
17635;BME280;8936;49.010;12.120;2023-04-01T04:58:08;96590.97;;;9.47;100.00
17635;BME280;8936;49.010;12.120;2023-04-01T05:00:35;96586.50;;;9.61;100.00
17635;BME280;8936;49.010;12.120;2023-04-01T05:03:03;96597.06;;;9.47;100.00
17635;BME280;8936;49.010;12.120;2023-04-01T05:05:29;96595.19;;;9.48;100.00
17635;BME280;8936;49.010;12.120;2023-04-01T05:07:55;96600.38;;;9.58;100.00
17635;BME280;8936;49.010;12.120;2023-04-01T05:10:22;96594.97;;;9.63;100.00
17635;BME280;8936;49.010;12.120;2023-04-01T05:12:48;96591.69;;;9.52;100.00
17635;BME280;8936;49.010;12.120;2023-04-01T05:15:15;96604.22;;;9.52;100.00
17635;BME280;8936;49.010;12.120;2023-04-01T05:17:41;96604.13;;;9.57;100.00
17635;BME280;8936;49.010;12.120;2023-04-01T05:20:10;96610.47;;;9.42;100.00
17635;BME280;8936;49.010;12.120;2023-04-01T05:22:37;96618.56;;;9.56;100.00
17635;BME280;8936;49.010;12.120;2023-04-01T05:25:04;96608.88;;;9.41;100.00
17635;BME280;8936;49.010;12.120;2023-04-01T05:27:30;96612.06;;;9.43;100.00
17635;BME280;8936;49.010;12.120;2023-04-01T05:29:57;96615.13;;;9.50;100.00
17635;BME280;8936;49.010;12.120;2023-04-01T05:32:23;96620.41;;;9.37;100.00
17635;BME280;8936;49.010;12.120;2023-04-01T05:34:50;96613.13;;;9.42;100.00
17635;BME280;8936;49.010;12.120;2023-04-01T05:37:18;96627.53;;;9.41;100.00
17635;BME280;8936;49.010;12.120;2023-04-01T05:39:44;96620.28;;;9.47;100.00
17635;BME280;8936;49.010;12.120;2023-04-01T05:42:11;96617.72;;;9.37;100.00
17635;BME280;8936;49.010;12.120;2023-04-01T05:44:37;96615.63;;;9.34;100.00
17635;BME280;8936;49.010;12.120;2023-04-01T05:47:04;96612.44;;;9.32;100.00
17635;BME280;8936;49.010;12.120;2023-04-01T05:49:30;96616.47;;;9.29;100.00
17635;BME280;8936;49.010;12.120;2023-04-01T05:51:57;96617.59;;;9.47;100.00
17635;BME280;8936;49.010;12.120;2023-04-01T05:54:24;96620.63;;;9.40;100.00
17635;BME280;8936;49.010;12.120;2023-04-01T05:56:51;96624.28;;;9.44;100.00
17635;BME280;8936;49.010;12.120;2023-04-01T05:59:17;96620.78;;;9.49;100.00
17635;BME280;8936;49.010;12.120;2023-04-01T06:01:44;96618.53;;;9.37;100.00
17635;BME280;8936;49.010;12.120;2023-04-01T06:04:12;96628.53;;;9.45;100.00
17635;BME280;8936;49.010;12.120;2023-04-01T06:06:39;96627.75;;;9.45;100.00
17635;BME280;8936;49.010;12.120;2023-04-01T06:09:07;96628.16;;;9.33;100.00
17635;BME280;8936;49.010;12.120;2023-04-01T06:11:40;96618.53;;;9.37;100.00
17635;BME280;8936;49.010;12.120;2023-04-01T06:14:12;96631.69;;;9.47;100.00
17635;BME280;8936;49.010;12.120;2023-04-01T06:16:49;96622.75;;;9.38;100.00
17635;BME280;8936;49.010;12.120;2023-04-01T06:19:20;96629.03;;;9.47;100.00
17635;BME280;8936;49.010;12.120;2023-04-01T06:21:53;96621.03;;;9.47;100.00
17635;BME280;8936;49.010;12.120;2023-04-01T06:24:30;96615.94;;;9.51;100.00
17635;BME280;8936;49.010;12.120;2023-04-01T06:27:06;96621.00;;;9.52;100.00
17635;BME280;8936;49.010;12.120;2023-04-01T06:29:44;96628.41;;;9.55;100.00
17635;BME280;8936;49.010;12.120;2023-04-01T06:38:01;96633.59;;;9.47;100.00
17635;BME280;8936;49.010;12.120;2023-04-01T06:43:18;96636.91;;;9.57;100.00
17635;BME280;8936;49.010;12.120;2023-04-01T06:45:49;96640.38;;;9.58;100.00
17635;BME280;8936;49.010;12.120;2023-04-01T06:51:12;96635.41;;;9.70;100.00
17635;BME280;8936;49.010;12.120;2023-04-01T06:53:42;96632.16;;;9.73;100.00
17635;BME280;8936;49.010;12.120;2023-04-01T06:56:14;96635.84;;;9.77;100.00
17635;BME280;8936;49.010;12.120;2023-04-01T06:58:46;96633.81;;;9.88;100.00
17635;BME280;8936;49.010;12.120;2023-04-01T07:01:13;96632.28;;;9.82;100.00
17635;BME280;8936;49.010;12.120;2023-04-01T07:03:41;96627.97;;;9.86;100.00
17635;BME280;8936;49.010;12.120;2023-04-01T07:06:10;96632.50;;;9.85;100.00
17635;BME280;8936;49.010;12.120;2023-04-01T07:08:41;96623.22;;;9.83;100.00
17635;BME280;8936;49.010;12.120;2023-04-01T07:11:09;96622.06;;;9.89;100.00
17635;BME280;8936;49.010;12.120;2023-04-01T07:13:39;96622.28;;;9.92;100.00
17635;BME280;8936;49.010;12.120;2023-04-01T07:16:11;96628.75;;;10.05;100.00
17635;BME280;8936;49.010;12.120;2023-04-01T07:18:40;96624.06;;;9.97;100.00
17635;BME280;8936;49.010;12.120;2023-04-01T07:21:09;96634.16;;;10.00;100.00
17635;BME280;8936;49.010;12.120;2023-04-01T07:23:40;96629.13;;;9.80;100.00
17635;BME280;8936;49.010;12.120;2023-04-01T07:26:12;96617.19;;;9.77;100.00
17635;BME280;8936;49.010;12.120;2023-04-01T07:28:40;96632.06;;;9.78;100.00
17635;BME280;8936;49.010;12.120;2023-04-01T07:31:11;96617.31;;;9.86;100.00
17635;BME280;8936;49.010;12.120;2023-04-01T07:33:42;96623.31;;;9.96;100.00
17635;BME280;8936;49.010;12.120;2023-04-01T07:36:13;96620.78;;;9.86;100.00
17635;BME280;8936;49.010;12.120;2023-04-01T07:38:44;96620.56;;;9.83;100.00
17635;BME280;8936;49.010;12.120;2023-04-01T07:41:14;96622.66;;;9.86;100.00
17635;BME280;8936;49.010;12.120;2023-04-01T07:43:53;96624.25;;;9.87;100.00
17635;BME280;8936;49.010;12.120;2023-04-01T07:46:28;96620.53;;;10.01;100.00
17635;BME280;8936;49.010;12.120;2023-04-01T07:48:58;96619.84;;;10.14;100.00
17635;BME280;8936;49.010;12.120;2023-04-01T07:51:29;96622.91;;;10.03;100.00
17635;BME280;8936;49.010;12.120;2023-04-01T07:53:59;96618.09;;;10.05;100.00
17635;BME280;8936;49.010;12.120;2023-04-01T07:56:30;96623.78;;;9.98;100.00
17635;BME280;8936;49.010;12.120;2023-04-01T07:59:03;96621.56;;;10.05;100.00
17635;BME280;8936;49.010;12.120;2023-04-01T08:01:33;96630.28;;;10.11;100.00
17635;BME280;8936;49.010;12.120;2023-04-01T08:04:13;96619.47;;;10.02;100.00
17635;BME280;8936;49.010;12.120;2023-04-01T08:06:45;96629.47;;;10.10;100.00
17635;BME280;8936;49.010;12.120;2023-04-01T08:09:15;96622.75;;;10.13;100.00
17635;BME280;8936;49.010;12.120;2023-04-01T08:11:46;96623.31;;;10.15;100.00
17635;BME280;8936;49.010;12.120;2023-04-01T08:14:18;96604.59;;;10.47;100.00
17635;BME280;8936;49.010;12.120;2023-04-01T08:16:51;96621.38;;;12.42;100.00
17635;BME280;8936;49.010;12.120;2023-04-01T08:19:21;96622.75;;;12.92;100.00
17635;BME280;8936;49.010;12.120;2023-04-01T08:21:52;96615.00;;;13.22;100.00
17635;BME280;8936;49.010;12.120;2023-04-01T08:24:21;96613.31;;;13.04;100.00
17635;BME280;8936;49.010;12.120;2023-04-01T08:27:03;96612.53;;;11.75;100.00
17635;BME280;8936;49.010;12.120;2023-04-01T08:29:33;96617.56;;;11.76;100.00
17635;BME280;8936;49.010;12.120;2023-04-01T08:32:05;96616.03;;;11.21;100.00
17635;BME280;8936;49.010;12.120;2023-04-01T08:34:34;96599.41;;;10.97;100.00
17635;BME280;8936;49.010;12.120;2023-04-01T08:37:03;96616.34;;;10.92;100.00
17635;BME280;8936;49.010;12.120;2023-04-01T08:39:31;96604.88;;;10.92;100.00
17635;BME280;8936;49.010;12.120;2023-04-01T08:42:15;96610.69;;;10.94;100.00
17635;BME280;8936;49.010;12.120;2023-04-01T08:44:56;96612.56;;;10.93;100.00
17635;BME280;8936;49.010;12.120;2023-04-01T08:47:36;96606.16;;;11.08;100.00
17635;BME280;8936;49.010;12.120;2023-04-01T08:50:17;96605.56;;;11.11;100.00
17635;BME280;8936;49.010;12.120;2023-04-01T08:52:45;96595.97;;;11.10;100.00
17635;BME280;8936;49.010;12.120;2023-04-01T08:55:22;96607.31;;;11.02;100.00
17635;BME280;8936;49.010;12.120;2023-04-01T08:57:54;96595.66;;;11.11;100.00
17635;BME280;8936;49.010;12.120;2023-04-01T09:00:24;96594.38;;;11.09;100.00
17635;BME280;8936;49.010;12.120;2023-04-01T09:03:06;96613.47;;;11.16;100.00
17635;BME280;8936;49.010;12.120;2023-04-01T09:05:52;96601.00;;;11.11;100.00
17635;BME280;8936;49.010;12.120;2023-04-01T09:08:27;96601.41;;;11.05;100.00
17635;BME280;8936;49.010;12.120;2023-04-01T09:11:06;96601.88;;;11.20;100.00
17635;BME280;8936;49.010;12.120;2023-04-01T09:13:42;96599.91;;;11.12;100.00
17635;BME280;8936;49.010;12.120;2023-04-01T09:16:13;96582.22;;;11.16;100.00
17635;BME280;8936;49.010;12.120;2023-04-01T09:18:56;96599.53;;;11.19;100.00
17635;BME280;8936;49.010;12.120;2023-04-01T09:21:37;96607.72;;;11.22;100.00
17635;BME280;8936;49.010;12.120;2023-04-01T09:24:13;96604.88;;;11.19;100.00
17635;BME280;8936;49.010;12.120;2023-04-01T09:26:50;96598.63;;;11.10;100.00
17635;BME280;8936;49.010;12.120;2023-04-01T09:29:27;96595.25;;;11.18;100.00
17635;BME280;8936;49.010;12.120;2023-04-01T09:32:02;96608.03;;;11.21;100.00
17635;BME280;8936;49.010;12.120;2023-04-01T09:37:20;96602.59;;;11.26;100.00
17635;BME280;8936;49.010;12.120;2023-04-01T09:39:52;96596.53;;;11.34;100.00
17635;BME280;8936;49.010;12.120;2023-04-01T09:42:28;96602.88;;;11.38;100.00
17635;BME280;8936;49.010;12.120;2023-04-01T09:44:57;96601.41;;;11.32;100.00
17635;BME280;8936;49.010;12.120;2023-04-01T09:53:37;96607.63;;;11.41;100.00
17635;BME280;8936;49.010;12.120;2023-04-01T09:56:19;96601.16;;;11.42;100.00
17635;BME280;8936;49.010;12.120;2023-04-01T09:58:58;96607.09;;;11.39;100.00
17635;BME280;8936;49.010;12.120;2023-04-01T10:01:40;96611.69;;;11.38;100.00
17635;BME280;8936;49.010;12.120;2023-04-01T10:06:57;96611.84;;;11.42;100.00
17635;BME280;8936;49.010;12.120;2023-04-01T10:17:54;96593.06;;;11.47;100.00
17635;BME280;8936;49.010;12.120;2023-04-01T10:20:41;96592.44;;;11.50;100.00
17635;BME280;8936;49.010;12.120;2023-04-01T10:23:20;96587.06;;;11.77;100.00
17635;BME280;8936;49.010;12.120;2023-04-01T10:25:53;96584.34;;;11.42;100.00
17635;BME280;8936;49.010;12.120;2023-04-01T10:28:35;96585.81;;;11.48;100.00
17635;BME280;8936;49.010;12.120;2023-04-01T10:31:14;96587.78;;;11.42;100.00
17635;BME280;8936;49.010;12.120;2023-04-01T10:33:55;96586.19;;;11.55;100.00
17635;BME280;8936;49.010;12.120;2023-04-01T10:50:17;96587.50;;;11.57;100.00
17635;BME280;8936;49.010;12.120;2023-04-01T10:55:44;96582.22;;;11.52;100.00
17635;BME280;8936;49.010;12.120;2023-04-01T10:58:25;96578.88;;;11.60;100.00
17635;BME280;8936;49.010;12.120;2023-04-01T11:01:07;96580.34;;;11.53;100.00
17635;BME280;8936;49.010;12.120;2023-04-01T11:03:46;96574.72;;;11.54;100.00
17635;BME280;8936;49.010;12.120;2023-04-01T11:09:28;96573.31;;;11.70;100.00
17635;BME280;8936;49.010;12.120;2023-04-01T11:14:51;96564.78;;;11.68;100.00
17635;BME280;8936;49.010;12.120;2023-04-01T11:17:32;96573.41;;;11.65;100.00
17635;BME280;8936;49.010;12.120;2023-04-01T11:20:08;96563.88;;;11.73;100.00
17635;BME280;8936;49.010;12.120;2023-04-01T11:22:50;96565.66;;;11.77;100.00
17635;BME280;8936;49.010;12.120;2023-04-01T11:25:36;96560.91;;;11.74;100.00
17635;BME280;8936;49.010;12.120;2023-04-01T11:28:14;96558.94;;;11.66;100.00
17635;BME280;8936;49.010;12.120;2023-04-01T11:30:49;96570.91;;;11.69;100.00
17635;BME280;8936;49.010;12.120;2023-04-01T11:33:20;96577.56;;;11.71;100.00
17635;BME280;8936;49.010;12.120;2023-04-01T11:35:55;96573.59;;;11.69;100.00
17635;BME280;8936;49.010;12.120;2023-04-01T11:41:11;96596.38;;;11.66;100.00
17635;BME280;8936;49.010;12.120;2023-04-01T11:43:40;96603.41;;;11.62;100.00
17635;BME280;8936;49.010;12.120;2023-04-01T11:46:10;96603.09;;;11.64;100.00
17635;BME280;8936;49.010;12.120;2023-04-01T11:48:47;96607.56;;;11.68;100.00
17635;BME280;8936;49.010;12.120;2023-04-01T11:51:24;96611.31;;;11.67;100.00
17635;BME280;8936;49.010;12.120;2023-04-01T11:53:58;96612.91;;;11.68;100.00
17635;BME280;8936;49.010;12.120;2023-04-01T11:56:37;96622.31;;;11.66;100.00
17635;BME280;8936;49.010;12.120;2023-04-01T11:59:14;96617.88;;;11.75;100.00
17635;BME280;8936;49.010;12.120;2023-04-01T12:01:51;96611.97;;;11.86;100.00
17635;BME280;8936;49.010;12.120;2023-04-01T12:04:29;96612.81;;;11.73;100.00
17635;BME280;8936;49.010;12.120;2023-04-01T12:07:02;96620.03;;;11.73;100.00
17635;BME280;8936;49.010;12.120;2023-04-01T12:09:34;96620.44;;;11.66;100.00
17635;BME280;8936;49.010;12.120;2023-04-01T12:12:12;96616.19;;;11.79;100.00
17635;BME280;8936;49.010;12.120;2023-04-01T12:14:44;96615.56;;;11.68;100.00
17635;BME280;8936;49.010;12.120;2023-04-01T12:17:15;96613.78;;;11.64;100.00
17635;BME280;8936;49.010;12.120;2023-04-01T12:19:47;96614.09;;;11.62;100.00
17635;BME280;8936;49.010;12.120;2023-04-01T12:22:27;96616.59;;;11.59;100.00
17635;BME280;8936;49.010;12.120;2023-04-01T12:25:03;96620.66;;;11.56;100.00
17635;BME280;8936;49.010;12.120;2023-04-01T12:27:40;96619.25;;;11.59;100.00
17635;BME280;8936;49.010;12.120;2023-04-01T12:30:17;96618.19;;;11.60;100.00
17635;BME280;8936;49.010;12.120;2023-04-01T12:32:49;96623.94;;;11.53;100.00
17635;BME280;8936;49.010;12.120;2023-04-01T12:35:22;96631.03;;;11.58;100.00
17635;BME280;8936;49.010;12.120;2023-04-01T12:37:53;96617.50;;;11.54;100.00
17635;BME280;8936;49.010;12.120;2023-04-01T12:43:15;96625.31;;;11.51;100.00
17635;BME280;8936;49.010;12.120;2023-04-01T12:45:44;96627.41;;;11.54;100.00
17635;BME280;8936;49.010;12.120;2023-04-01T12:54:00;96624.22;;;11.52;100.00
17635;BME280;8936;49.010;12.120;2023-04-01T12:56:31;96632.03;;;11.62;100.00
17635;BME280;8936;49.010;12.120;2023-04-01T12:59:12;96639.56;;;11.60;100.00
17635;BME280;8936;49.010;12.120;2023-04-01T13:01:55;96619.28;;;11.45;100.00
17635;BME280;8936;49.010;12.120;2023-04-01T13:07:13;96633.75;;;11.44;100.00
17635;BME280;8936;49.010;12.120;2023-04-01T13:09:45;96632.28;;;11.38;100.00
17635;BME280;8936;49.010;12.120;2023-04-01T13:12:21;96632.28;;;11.38;100.00
17635;BME280;8936;49.010;12.120;2023-04-01T13:15:01;96639.19;;;11.39;100.00
17635;BME280;8936;49.010;12.120;2023-04-01T13:17:36;96639.78;;;11.36;100.00
17635;BME280;8936;49.010;12.120;2023-04-01T13:20:06;96641.38;;;11.37;100.00
17635;BME280;8936;49.010;12.120;2023-04-01T13:22:45;96638.22;;;11.35;100.00
17635;BME280;8936;49.010;12.120;2023-04-01T13:25:19;96633.94;;;11.34;100.00
17635;BME280;8936;49.010;12.120;2023-04-01T13:27:48;96641.97;;;11.34;100.00
17635;BME280;8936;49.010;12.120;2023-04-01T13:30:20;96636.22;;;11.41;100.00
17635;BME280;8936;49.010;12.120;2023-04-01T13:32:53;96642.56;;;11.45;100.00
17635;BME280;8936;49.010;12.120;2023-04-01T13:35:25;96647.13;;;11.44;100.00
17635;BME280;8936;49.010;12.120;2023-04-01T13:38:02;96639.19;;;11.39;100.00
17635;BME280;8936;49.010;12.120;2023-04-01T13:40:33;96642.38;;;11.41;100.00
17635;BME280;8936;49.010;12.120;2023-04-01T13:43:07;96639.00;;;11.35;100.00
17635;BME280;8936;49.010;12.120;2023-04-01T13:45:42;96639.19;;;11.39;100.00
17635;BME280;8936;49.010;12.120;2023-04-01T13:48:20;96642.66;;;11.39;100.00
17635;BME280;8936;49.010;12.120;2023-04-01T13:50:55;96648.91;;;11.35;100.00
17635;BME280;8936;49.010;12.120;2023-04-01T13:53:29;96650.97;;;11.38;100.00
17635;BME280;8936;49.010;12.120;2023-04-01T13:56:04;96655.03;;;11.35;100.00
17635;BME280;8936;49.010;12.120;2023-04-01T13:58:37;96645.31;;;11.53;100.00
17635;BME280;8936;49.010;12.120;2023-04-01T14:01:07;96649.00;;;11.44;100.00
17635;BME280;8936;49.010;12.120;2023-04-01T14:03:44;96652.94;;;11.46;100.00
17635;BME280;8936;49.010;12.120;2023-04-01T14:06:18;96653.22;;;11.58;100.00
17635;BME280;8936;49.010;12.120;2023-04-01T14:08:59;96648.19;;;11.57;100.00
17635;BME280;8936;49.010;12.120;2023-04-01T14:11:32;96660.38;;;11.49;100.00
17635;BME280;8936;49.010;12.120;2023-04-01T14:14:04;96655.03;;;11.49;100.00
17635;BME280;8936;49.010;12.120;2023-04-01T14:16:40;96656.59;;;11.50;100.00
17635;BME280;8936;49.010;12.120;2023-04-01T14:19:18;96648.69;;;11.45;100.00
17635;BME280;8936;49.010;12.120;2023-04-01T14:21:51;96646.59;;;11.42;100.00